ZND weather

Zinder Airport
Zinder, Zinder Region, Niger

Public forecast

Using degrees Celsius for public forecast. Weather courtesy of forecast.io.

METAR (pilot weather report)

Retrieved 2019/02/19 16:00 UTC (33 minutes ago):

DRZR 191600Z 08006KT 1800 DU NSC 30/M00 Q1011

TAF (pilot weather forecast)

Retrieved 2019/02/19 12:21 UTC (4 hours ago):

TAF DRZR 191100Z 1912/2012 08012KT 1200 DU NSC BECMG 1916/1920 6000 NSW